sensor_id;sensor_type;location;lat;lon;timestamp;pressure;altitude;pressure_sealevel;temperature;humidity
50356;BME280;36264;51.296;-0.602;2023-02-10T00:01:24;103433.44;;;2.69;100.00
50356;BME280;36264;51.296;-0.602;2023-02-10T00:03:50;103432.22;;;2.61;100.00
50356;BME280;36264;51.296;-0.602;2023-02-10T00:06:17;103438.13;;;2.60;100.00
50356;BME280;36264;51.296;-0.602;2023-02-10T00:08:46;103427.94;;;2.61;100.00
50356;BME280;36264;51.296;-0.602;2023-02-10T00:11:12;103438.97;;;2.59;100.00
50356;BME280;36264;51.296;-0.602;2023-02-10T00:13:39;103437.41;;;2.62;100.00
50356;BME280;36264;51.296;-0.602;2023-02-10T00:16:06;103440.97;;;2.66;100.00
50356;BME280;36264;51.296;-0.602;2023-02-10T00:18:32;103449.56;;;2.66;100.00
50356;BME280;36264;51.296;-0.602;2023-02-10T00:21:16;103441.19;;;2.70;100.00
50356;BME280;36264;51.296;-0.602;2023-02-10T00:23:42;103431.66;;;2.68;100.00
50356;BME280;36264;51.296;-0.602;2023-02-10T00:26:10;103434.34;;;2.71;100.00
50356;BME280;36264;51.296;-0.602;2023-02-10T00:28:36;103434.09;;;2.65;100.00
50356;BME280;36264;51.296;-0.602;2023-02-10T00:31:06;103439.22;;;2.65;100.00
50356;BME280;36264;51.296;-0.602;2023-02-10T00:33:32;103437.84;;;2.53;100.00
50356;BME280;36264;51.296;-0.602;2023-02-10T00:35:57;103441.09;;;2.49;100.00
50356;BME280;36264;51.296;-0.602;2023-02-10T00:38:22;103436.84;;;2.50;100.00
50356;BME280;36264;51.296;-0.602;2023-02-10T00:40:48;103438.63;;;2.51;100.00
50356;BME280;36264;51.296;-0.602;2023-02-10T00:43:13;103434.34;;;2.51;100.00
50356;BME280;36264;51.296;-0.602;2023-02-10T00:45:38;103430.84;;;2.49;100.00
50356;BME280;36264;51.296;-0.602;2023-02-10T00:48:04;103425.50;;;2.45;100.00
50356;BME280;36264;51.296;-0.602;2023-02-10T00:50:29;103425.44;;;2.43;100.00
50356;BME280;36264;51.296;-0.602;2023-02-10T00:52:55;103428.72;;;2.41;100.00
50356;BME280;36264;51.296;-0.602;2023-02-10T00:55:20;103426.91;;;2.38;100.00
50356;BME280;36264;51.296;-0.602;2023-02-10T00:57:45;103424.00;;;2.30;100.00
50356;BME280;36264;51.296;-0.602;2023-02-10T01:00:11;103424.00;;;2.30;100.00
50356;BME280;36264;51.296;-0.602;2023-02-10T01:02:37;103418.78;;;2.29;100.00
50356;BME280;36264;51.296;-0.602;2023-02-10T01:05:02;103415.25;;;2.27;100.00
50356;BME280;36264;51.296;-0.602;2023-02-10T01:07:28;103412.56;;;2.24;100.00
50356;BME280;36264;51.296;-0.602;2023-02-10T01:09:54;103418.56;;;2.24;100.00
50356;BME280;36264;51.296;-0.602;2023-02-10T01:12:20;103421.06;;;2.23;100.00
50356;BME280;36264;51.296;-0.602;2023-02-10T01:14:45;103417.78;;;2.25;100.00
50356;BME280;36264;51.296;-0.602;2023-02-10T01:17:10;103418.56;;;2.24;100.00
50356;BME280;36264;51.296;-0.602;2023-02-10T01:19:36;103421.00;;;2.21;100.00
50356;BME280;36264;51.296;-0.602;2023-02-10T01:22:01;103419.16;;;2.18;100.00
50356;BME280;36264;51.296;-0.602;2023-02-10T01:24:27;103421.56;;;2.15;100.00
50356;BME280;36264;51.296;-0.602;2023-02-10T01:26:52;103416.22;;;2.11;100.00
50356;BME280;36264;51.296;-0.602;2023-02-10T01:29:17;103414.41;;;2.08;100.00
50356;BME280;36264;51.296;-0.602;2023-02-10T01:31:43;103421.28;;;2.09;100.00
50356;BME280;36264;51.296;-0.602;2023-02-10T01:34:08;103422.19;;;2.10;100.00
50356;BME280;36264;51.296;-0.602;2023-02-10T01:36:35;103423.06;;;2.10;100.00
50356;BME280;36264;51.296;-0.602;2023-02-10T01:39:00;103427.16;;;2.07;100.00
50356;BME280;36264;51.296;-0.602;2023-02-10T01:41:26;103428.09;;;2.09;100.00
50356;BME280;36264;51.296;-0.602;2023-02-10T01:46:22;103419.31;;;2.04;100.00
50356;BME280;36264;51.296;-0.602;2023-02-10T01:48:47;103421.09;;;2.05;100.00
50356;BME280;36264;51.296;-0.602;2023-02-10T01:51:13;103423.28;;;2.15;100.00
50356;BME280;36264;51.296;-0.602;2023-02-10T01:53:40;103416.38;;;2.14;100.00
50356;BME280;36264;51.296;-0.602;2023-02-10T01:56:05;103406.88;;;2.11;100.00
50356;BME280;36264;51.296;-0.602;2023-02-10T01:58:33;103411.25;;;2.14;100.00
50356;BME280;36264;51.296;-0.602;2023-02-10T02:00:59;103419.63;;;2.10;100.00
50356;BME280;36264;51.296;-0.602;2023-02-10T02:03:25;103424.59;;;2.07;100.00
50356;BME280;36264;51.296;-0.602;2023-02-10T02:05:51;103430.31;;;2.01;100.00
50356;BME280;36264;51.296;-0.602;2023-02-10T02:11:18;103426.34;;;2.08;100.00
50356;BME280;36264;51.296;-0.602;2023-02-10T02:14:03;103435.16;;;2.13;100.00
50356;BME280;36264;51.296;-0.602;2023-02-10T02:33:33;103433.03;;;1.86;100.00
50356;BME280;36264;51.296;-0.602;2023-02-10T02:36:09;103430.47;;;1.86;100.00
50356;BME280;36264;51.296;-0.602;2023-02-10T02:38:40;103428.91;;;1.90;100.00
50356;BME280;36264;51.296;-0.602;2023-02-10T02:41:06;103429.66;;;1.87;100.00
50356;BME280;36264;51.296;-0.602;2023-02-10T02:43:32;103432.28;;;1.89;100.00
50356;BME280;36264;51.296;-0.602;2023-02-10T02:52:14;103441.72;;;1.90;100.00
50356;BME280;36264;51.296;-0.602;2023-02-10T02:54:59;103441.59;;;1.87;100.00
50356;BME280;36264;51.296;-0.602;2023-02-10T02:57:47;103432.16;;;1.86;100.00
50356;BME280;36264;51.296;-0.602;2023-02-10T03:00:27;103431.09;;;1.82;100.00
50356;BME280;36264;51.296;-0.602;2023-02-10T03:02:54;103430.81;;;1.76;100.00
50356;BME280;36264;51.296;-0.602;2023-02-10T03:05:23;103433.38;;;1.76;100.00
50356;BME280;36264;51.296;-0.602;2023-02-10T03:07:51;103433.22;;;1.73;100.00
50356;BME280;36264;51.296;-0.602;2023-02-10T03:10:17;103424.75;;;1.74;100.00
50356;BME280;36264;51.296;-0.602;2023-02-10T03:12:42;103427.22;;;1.72;100.00
50356;BME280;36264;51.296;-0.602;2023-02-10T03:15:08;103418.59;;;1.70;100.00
50356;BME280;36264;51.296;-0.602;2023-02-10T03:17:34;103421.88;;;1.68;100.00
50356;BME280;36264;51.296;-0.602;2023-02-10T03:19:59;103422.53;;;1.63;100.00
50356;BME280;36264;51.296;-0.602;2023-02-10T03:22:25;103426.91;;;1.66;100.00
50356;BME280;36264;51.296;-0.602;2023-02-10T03:24:50;103427.00;;;1.68;100.00
50356;BME280;36264;51.296;-0.602;2023-02-10T03:27:16;103421.66;;;1.63;100.00
50356;BME280;36264;51.296;-0.602;2023-02-10T03:29:41;103424.88;;;1.59;100.00
50356;BME280;36264;51.296;-0.602;2023-02-10T03:32:07;103409.22;;;1.53;100.00
50356;BME280;36264;51.296;-0.602;2023-02-10T03:34:33;103422.97;;;1.55;100.00
50356;BME280;36264;51.296;-0.602;2023-02-10T03:36:58;103431.25;;;1.49;100.00
50356;BME280;36264;51.296;-0.602;2023-02-10T03:39:24;103421.00;;;1.49;100.00
50356;BME280;36264;51.296;-0.602;2023-02-10T03:41:49;103420.00;;;1.47;100.00
50356;BME280;36264;51.296;-0.602;2023-02-10T03:44:15;103418.34;;;1.48;100.00
50356;BME280;36264;51.296;-0.602;2023-02-10T03:46:40;103419.06;;;1.45;100.00
50356;BME280;36264;51.296;-0.602;2023-02-10T03:49:05;103411.38;;;1.45;100.00
50356;BME280;36264;51.296;-0.602;2023-02-10T03:51:31;103411.38;;;1.45;100.00
50356;BME280;36264;51.296;-0.602;2023-02-10T03:53:57;103405.31;;;1.43;100.00
50356;BME280;36264;51.296;-0.602;2023-02-10T03:56:22;103398.50;;;1.43;100.00
50356;BME280;36264;51.296;-0.602;2023-02-10T03:58:47;103408.81;;;1.45;100.00
50356;BME280;36264;51.296;-0.602;2023-02-10T04:01:15;103410.66;;;1.48;100.00
50356;BME280;36264;51.296;-0.602;2023-02-10T04:03:41;103401.84;;;1.42;100.00
50356;BME280;36264;51.296;-0.602;2023-02-10T04:06:08;103407.88;;;1.43;100.00
50356;BME280;36264;51.296;-0.602;2023-02-10T04:08:33;103405.00;;;1.37;100.00
50356;BME280;36264;51.296;-0.602;2023-02-10T04:10:59;103398.91;;;1.35;100.00
50356;BME280;36264;51.296;-0.602;2023-02-10T04:13:24;103390.34;;;1.34;100.00
50356;BME280;36264;51.296;-0.602;2023-02-10T04:16:00;103392.22;;;1.37;100.00
50356;BME280;36264;51.296;-0.602;2023-02-10T04:18:26;103383.41;;;1.32;100.00
50356;BME280;36264;51.296;-0.602;2023-02-10T04:20:51;103397.00;;;1.31;100.00
50356;BME280;36264;51.296;-0.602;2023-02-10T04:23:16;103388.38;;;1.29;100.00
50356;BME280;36264;51.296;-0.602;2023-02-10T04:25:41;103383.19;;;1.27;100.00
50356;BME280;36264;51.296;-0.602;2023-02-10T04:28:07;103390.88;;;1.27;100.00
50356;BME280;36264;51.296;-0.602;2023-02-10T04:30:32;103388.38;;;1.29;100.00
50356;BME280;36264;51.296;-0.602;2023-02-10T04:32:57;103388.38;;;1.29;100.00
50356;BME280;36264;51.296;-0.602;2023-02-10T04:35:23;103400.97;;;1.24;100.00
50356;BME280;36264;51.296;-0.602;2023-02-10T04:37:48;103406.94;;;1.24;100.00
50356;BME280;36264;51.296;-0.602;2023-02-10T04:40:13;103403.53;;;1.24;100.00
50356;BME280;36264;51.296;-0.602;2023-02-10T04:42:39;103407.66;;;1.22;100.00
50356;BME280;36264;51.296;-0.602;2023-02-10T04:45:05;103408.28;;;1.34;100.00
50356;BME280;36264;51.296;-0.602;2023-02-10T04:47:30;103411.78;;;1.36;100.00
50356;BME280;36264;51.296;-0.602;2023-02-10T04:49:55;103414.19;;;1.33;100.00
50356;BME280;36264;51.296;-0.602;2023-02-10T04:52:21;103416.03;;;1.36;100.00
50356;BME280;36264;51.296;-0.602;2023-02-10T04:54:46;103432.94;;;1.32;100.00
50356;BME280;36264;51.296;-0.602;2023-02-10T04:57:12;103422.63;;;1.31;100.00
50356;BME280;36264;51.296;-0.602;2023-02-10T04:59:37;103407.91;;;1.26;100.00
50356;BME280;36264;51.296;-0.602;2023-02-10T05:02:03;103415.50;;;1.25;100.00
50356;BME280;36264;51.296;-0.602;2023-02-10T05:04:28;103413.91;;;1.27;100.00
50356;BME280;36264;51.296;-0.602;2023-02-10T05:06:53;103399.34;;;1.26;100.00
50356;BME280;36264;51.296;-0.602;2023-02-10T05:09:23;103399.28;;;1.24;100.00
50356;BME280;36264;51.296;-0.602;2023-02-10T05:11:49;103415.66;;;1.28;100.00
50356;BME280;36264;51.296;-0.602;2023-02-10T05:14:14;103413.91;;;1.27;100.00
50356;BME280;36264;51.296;-0.602;2023-02-10T05:16:39;103411.44;;;1.29;100.00
50356;BME280;36264;51.296;-0.602;2023-02-10T05:19:05;103409.03;;;1.32;100.00
50356;BME280;36264;51.296;-0.602;2023-02-10T05:21:30;103409.03;;;1.32;100.00
50356;BME280;36264;51.296;-0.602;2023-02-10T05:23:57;103412.69;;;1.37;100.00
50356;BME280;36264;51.296;-0.602;2023-02-10T05:26:23;103411.59;;;1.32;100.00
50356;BME280;36264;51.296;-0.602;2023-02-10T05:28:48;103404.63;;;1.29;100.00
50356;BME280;36264;51.296;-0.602;2023-02-10T05:31:13;103403.69;;;1.27;100.00
50356;BME280;36264;51.296;-0.602;2023-02-10T05:33:39;103391.75;;;1.27;100.00
50356;BME280;36264;51.296;-0.602;2023-02-10T05:36:04;103388.38;;;1.29;100.00
50356;BME280;36264;51.296;-0.602;2023-02-10T05:38:30;103392.59;;;1.28;100.00
50356;BME280;36264;51.296;-0.602;2023-02-10T05:40:55;103401.19;;;1.29;100.00
50356;BME280;36264;51.296;-0.602;2023-02-10T05:43:21;103402.78;;;1.26;100.00
50356;BME280;36264;51.296;-0.602;2023-02-10T05:45:46;103407.09;;;1.27;100.00
50356;BME280;36264;51.296;-0.602;2023-02-10T05:48:12;103413.84;;;1.25;100.00
50356;BME280;36264;51.296;-0.602;2023-02-10T05:50:37;103411.28;;;1.25;100.00
50356;BME280;36264;51.296;-0.602;2023-02-10T05:53:05;103405.09;;;1.22;100.00
50356;BME280;36264;51.296;-0.602;2023-02-10T05:55:31;103403.22;;;1.18;100.00
50356;BME280;36264;51.296;-0.602;2023-02-10T05:57:56;103392.00;;;1.16;100.00
50356;BME280;36264;51.296;-0.602;2023-02-10T06:00:21;103408.56;;;1.22;100.00
50356;BME280;36264;51.296;-0.602;2023-02-10T06:02:48;103403.44;;;1.22;100.00
50356;BME280;36264;51.296;-0.602;2023-02-10T06:05:14;103407.50;;;1.19;100.00
50356;BME280;36264;51.296;-0.602;2023-02-10T06:07:39;103409.78;;;1.13;100.00
50356;BME280;36264;51.296;-0.602;2023-02-10T06:10:05;103409.81;;;1.14;100.00
50356;BME280;36264;51.296;-0.602;2023-02-10T06:12:31;103406.31;;;1.12;100.00
50356;BME280;36264;51.296;-0.602;2023-02-10T06:14:56;103418.19;;;1.10;100.00
50356;BME280;36264;51.296;-0.602;2023-02-10T06:17:22;103418.81;;;1.06;100.00
50356;BME280;36264;51.296;-0.602;2023-02-10T06:19:47;103422.97;;;1.04;100.00
50356;BME280;36264;51.296;-0.602;2023-02-10T06:22:13;103420.41;;;1.04;100.00
50356;BME280;36264;51.296;-0.602;2023-02-10T06:24:39;103416.09;;;1.03;100.00
50356;BME280;36264;51.296;-0.602;2023-02-10T06:27:04;103420.34;;;1.02;100.00
50356;BME280;36264;51.296;-0.602;2023-02-10T06:29:30;103422.03;;;1.02;99.89
50356;BME280;36264;51.296;-0.602;2023-02-10T06:31:56;103428.56;;;0.97;100.00
50356;BME280;36264;51.296;-0.602;2023-02-10T06:34:22;103424.44;;;0.99;100.00
50356;BME280;36264;51.296;-0.602;2023-02-10T06:36:47;103427.00;;;0.99;100.00
50356;BME280;36264;51.296;-0.602;2023-02-10T06:39:12;103416.75;;;0.99;100.00
50356;BME280;36264;51.296;-0.602;2023-02-10T06:41:38;103417.63;;;0.99;100.00
50356;BME280;36264;51.296;-0.602;2023-02-10T06:44:03;103429.53;;;0.99;100.00
50356;BME280;36264;51.296;-0.602;2023-02-10T06:46:29;103427.16;;;1.02;100.00
50356;BME280;36264;51.296;-0.602;2023-02-10T06:48:54;103422.09;;;1.03;100.00
50356;BME280;36264;51.296;-0.602;2023-02-10T06:51:19;103416.31;;;1.07;100.00
50356;BME280;36264;51.296;-0.602;2023-02-10T06:53:45;103419.88;;;1.10;100.00
50356;BME280;36264;51.296;-0.602;2023-02-10T06:56:11;103422.50;;;1.11;100.00
50356;BME280;36264;51.296;-0.602;2023-02-10T06:58:37;103407.94;;;1.10;100.00
50356;BME280;36264;51.296;-0.602;2023-02-10T07:01:10;103418.41;;;1.15;100.00
50356;BME280;36264;51.296;-0.602;2023-02-10T07:03:36;103427.63;;;1.11;100.00
50356;BME280;36264;51.296;-0.602;2023-02-10T07:06:02;103423.38;;;1.12;100.00
50356;BME280;36264;51.296;-0.602;2023-02-10T07:08:27;103439.53;;;1.11;100.00
50356;BME280;36264;51.296;-0.602;2023-02-10T07:10:53;103439.69;;;1.14;100.00
50356;BME280;36264;51.296;-0.602;2023-02-10T07:13:18;103426.81;;;1.12;100.00
50356;BME280;36264;51.296;-0.602;2023-02-10T07:15:44;103427.53;;;1.10;100.00
50356;BME280;36264;51.296;-0.602;2023-02-10T07:18:09;103448.19;;;1.13;100.00
50356;BME280;36264;51.296;-0.602;2023-02-10T07:20:34;103455.13;;;1.15;100.00
50356;BME280;36264;51.296;-0.602;2023-02-10T07:23:00;103465.44;;;1.17;100.00
50356;BME280;36264;51.296;-0.602;2023-02-10T07:25:25;103458.63;;;1.17;100.00
50356;BME280;36264;51.296;-0.602;2023-02-10T07:27:51;103455.28;;;1.18;100.00
50356;BME280;36264;51.296;-0.602;2023-02-10T07:30:16;103456.16;;;1.19;100.00
50356;BME280;36264;51.296;-0.602;2023-02-10T07:32:41;103464.66;;;1.18;100.00
50356;BME280;36264;51.296;-0.602;2023-02-10T07:35:09;103461.09;;;1.16;100.00
50356;BME280;36264;51.296;-0.602;2023-02-10T07:37:35;103454.41;;;1.18;100.00
50356;BME280;36264;51.296;-0.602;2023-02-10T07:40:00;103456.06;;;1.17;100.00
50356;BME280;36264;51.296;-0.602;2023-02-10T07:42:25;103452.63;;;1.17;100.00
50356;BME280;36264;51.296;-0.602;2023-02-10T07:44:51;103441.44;;;1.15;100.00
50356;BME280;36264;51.296;-0.602;2023-02-10T07:47:16;103444.97;;;1.17;100.00
50356;BME280;36264;51.296;-0.602;2023-02-10T07:49:41;103444.25;;;1.19;100.00
50356;BME280;36264;51.296;-0.602;2023-02-10T07:52:07;103439.22;;;1.21;100.00
50356;BME280;36264;51.296;-0.602;2023-02-10T07:54:32;103445.50;;;1.27;100.00
50356;BME280;36264;51.296;-0.602;2023-02-10T07:56:57;103448.16;;;1.29;100.00
50356;BME280;36264;51.296;-0.602;2023-02-10T07:59:23;103458.47;;;1.31;100.00
50356;BME280;36264;51.296;-0.602;2023-02-10T08:01:48;103466.31;;;1.17;100.00
50356;BME280;36264;51.296;-0.602;2023-02-10T08:04:14;103468.88;;;1.17;100.00
50356;BME280;36264;51.296;-0.602;2023-02-10T08:06:39;103467.22;;;1.18;100.00
50356;BME280;36264;51.296;-0.602;2023-02-10T08:09:06;103462.09;;;1.18;100.00
50356;BME280;36264;51.296;-0.602;2023-02-10T08:11:31;103462.09;;;1.18;100.00
50356;BME280;36264;51.296;-0.602;2023-02-10T08:13:57;103464.88;;;1.22;100.00
50356;BME280;36264;51.296;-0.602;2023-02-10T08:16:22;103461.34;;;1.37;100.00
50356;BME280;36264;51.296;-0.602;2023-02-10T08:18:48;103462.94;;;1.35;100.00
50356;BME280;36264;51.296;-0.602;2023-02-10T08:21:13;103471.00;;;1.42;100.00
50356;BME280;36264;51.296;-0.602;2023-02-10T08:23:38;103463.56;;;1.47;100.00
50356;BME280;36264;51.296;-0.602;2023-02-10T08:26:06;103469.06;;;1.55;100.00
50356;BME280;36264;51.296;-0.602;2023-02-10T08:28:33;103464.19;;;1.59;100.00
50356;BME280;36264;51.296;-0.602;2023-02-10T08:31:00;103464.34;;;1.62;100.00
50356;BME280;36264;51.296;-0.602;2023-02-10T08:33:26;103475.03;;;1.72;100.00
50356;BME280;36264;51.296;-0.602;2023-02-10T08:35:51;103469.41;;;1.79;100.00
50356;BME280;36264;51.296;-0.602;2023-02-10T08:38:17;103480.94;;;1.87;100.00
50356;BME280;36264;51.296;-0.602;2023-02-10T08:40:42;103471.09;;;1.96;100.00
50356;BME280;36264;51.296;-0.602;2023-02-10T08:43:07;103464.78;;;2.08;100.00
50356;BME280;36264;51.296;-0.602;2023-02-10T08:45:33;103470.44;;;2.01;100.00
50356;BME280;36264;51.296;-0.602;2023-02-10T08:47:58;103476.66;;;2.06;100.00
50356;BME280;36264;51.296;-0.602;2023-02-10T08:50:24;103476.31;;;2.16;100.00
50356;BME280;36264;51.296;-0.602;2023-02-10T08:52:49;103478.50;;;2.26;100.00
50356;BME280;36264;51.296;-0.602;2023-02-10T08:55:15;103478.94;;;2.35;100.00
50356;BME280;36264;51.296;-0.602;2023-02-10T08:57:40;103485.31;;;2.44;100.00
50356;BME280;36264;51.296;-0.602;2023-02-10T09:00:06;103487.44;;;2.52;100.00
50356;BME280;36264;51.296;-0.602;2023-02-10T09:02:32;103484.19;;;2.57;100.00
50356;BME280;36264;51.296;-0.602;2023-02-10T09:04:58;103492.22;;;2.64;100.00
50356;BME280;36264;51.296;-0.602;2023-02-10T09:07:23;103494.28;;;2.71;100.00
50356;BME280;36264;51.296;-0.602;2023-02-10T09:09:49;103492.00;;;2.78;100.00
50356;BME280;36264;51.296;-0.602;2023-02-10T09:12:14;103490.66;;;2.86;100.00
50356;BME280;36264;51.296;-0.602;2023-02-10T09:14:40;103495.31;;;2.95;100.00
50356;BME280;36264;51.296;-0.602;2023-02-10T09:17:06;103492.22;;;3.02;100.00
50356;BME280;36264;51.296;-0.602;2023-02-10T09:19:37;103502.06;;;3.12;100.00
50356;BME280;36264;51.296;-0.602;2023-02-10T09:22:04;103506.69;;;3.19;100.00
50356;BME280;36264;51.296;-0.602;2023-02-10T09:24:30;103510.25;;;3.23;100.00
50356;BME280;36264;51.296;-0.602;2023-02-10T09:26:56;103518.16;;;3.28;100.00
50356;BME280;36264;51.296;-0.602;2023-02-10T09:29:21;103515.00;;;3.33;100.00
50356;BME280;36264;51.296;-0.602;2023-02-10T09:31:46;103517.69;;;3.36;100.00
50356;BME280;36264;51.296;-0.602;2023-02-10T09:34:12;103511.06;;;3.41;100.00
50356;BME280;36264;51.296;-0.602;2023-02-10T09:36:38;103512.94;;;3.45;100.00
50356;BME280;36264;51.296;-0.602;2023-02-10T09:39:03;103517.47;;;3.51;100.00
50356;BME280;36264;51.296;-0.602;2023-02-10T09:54:56;103500.56;;;3.77;100.00
50356;BME280;36264;51.296;-0.602;2023-02-10T09:57:29;103499.00;;;3.81;100.00
50356;BME280;36264;51.296;-0.602;2023-02-10T09:59:58;103498.81;;;3.97;100.00
50356;BME280;36264;51.296;-0.602;2023-02-10T10:02:33;103501.09;;;4.11;100.00
50356;BME280;36264;51.296;-0.602;2023-02-10T10:05:00;103497.69;;;4.12;100.00
50356;BME280;36264;51.296;-0.602;2023-02-10T10:07:34;103500.56;;;4.20;100.00
50356;BME280;36264;51.296;-0.602;2023-02-10T10:10:07;103498.03;;;4.21;100.00
50356;BME280;36264;51.296;-0.602;2023-02-10T10:12:38;103495.66;;;4.26;100.00
50356;BME280;36264;51.296;-0.602;2023-02-10T10:15:06;103493.63;;;4.40;100.00
50356;BME280;36264;51.296;-0.602;2023-02-10T10:18:01;103503.63;;;4.54;100.00
50356;BME280;36264;51.296;-0.602;2023-02-10T10:20:51;103500.97;;;4.76;100.00
50356;BME280;36264;51.296;-0.602;2023-02-10T10:26:07;103501.34;;;5.09;100.00
50356;BME280;36264;51.296;-0.602;2023-02-10T10:31:24;103502.22;;;5.34;100.00
50356;BME280;36264;51.296;-0.602;2023-02-10T10:33:54;103511.03;;;5.40;100.00
50356;BME280;36264;51.296;-0.602;2023-02-10T10:36:30;103510.59;;;5.52;100.00
50356;BME280;36264;51.296;-0.602;2023-02-10T10:39:06;103505.75;;;5.61;100.00
50356;BME280;36264;51.296;-0.602;2023-02-10T10:41:37;103501.84;;;5.73;100.00
50356;BME280;36264;51.296;-0.602;2023-02-10T10:44:02;103509.13;;;5.86;100.00
50356;BME280;36264;51.296;-0.602;2023-02-10T10:49:06;103498.81;;;6.12;100.00
50356;BME280;36264;51.296;-0.602;2023-02-10T10:51:31;103499.16;;;6.23;100.00
50356;BME280;36264;51.296;-0.602;2023-02-10T10:54:00;103491.59;;;6.29;100.00
50356;BME280;36264;51.296;-0.602;2023-02-10T10:56:51;103493.78;;;6.44;100.00
50356;BME280;36264;51.296;-0.602;2023-02-10T10:59:23;103495.94;;;6.59;100.00
50356;BME280;36264;51.296;-0.602;2023-02-10T11:01:51;103505.47;;;6.61;100.00
50356;BME280;36264;51.296;-0.602;2023-02-10T11:04:22;103505.81;;;6.72;100.00
50356;BME280;36264;51.296;-0.602;2023-02-10T11:06:56;103508.53;;;6.77;100.00
50356;BME280;36264;51.296;-0.602;2023-02-10T11:09:32;103500.09;;;6.82;100.00
50356;BME280;36264;51.296;-0.602;2023-02-10T11:12:06;103502.91;;;6.90;100.00
50356;BME280;36264;51.296;-0.602;2023-02-10T11:14:40;103505.63;;;6.95;100.00
50356;BME280;36264;51.296;-0.602;2023-02-10T11:20:27;103506.97;;;7.12;100.00
50356;BME280;36264;51.296;-0.602;2023-02-10T11:23:03;103503.81;;;7.24;100.00
50356;BME280;36264;51.296;-0.602;2023-02-10T11:25:34;103490.19;;;7.30;100.00
50356;BME280;36264;51.296;-0.602;2023-02-10T11:28:02;103486.78;;;7.32;100.00
50356;BME280;36264;51.296;-0.602;2023-02-10T11:30:34;103487.78;;;7.37;100.00
50356;BME280;36264;51.296;-0.602;2023-02-10T11:33:00;103492.22;;;7.41;100.00
50356;BME280;36264;51.296;-0.602;2023-02-10T11:35:27;103485.53;;;7.50;100.00
50356;BME280;36264;51.296;-0.602;2023-02-10T11:38:00;103477.03;;;7.54;100.00
50356;BME280;36264;51.296;-0.602;2023-02-10T11:40:30;103482.34;;;7.60;100.00
50356;BME280;36264;51.296;-0.602;2023-02-10T11:42:57;103475.56;;;7.65;100.00
50356;BME280;36264;51.296;-0.602;2023-02-10T11:45:29;103472.31;;;7.74;100.00
50356;BME280;36264;51.296;-0.602;2023-02-10T11:48:13;103469.78;;;7.75;100.00
50356;BME280;36264;51.296;-0.602;2023-02-10T11:50:40;103466.28;;;7.73;100.00
50356;BME280;36264;51.296;-0.602;2023-02-10T11:53:22;103457.97;;;7.85;100.00
50356;BME280;36264;51.296;-0.602;2023-02-10T11:59:07;103452.19;;;7.97;98.13
50356;BME280;36264;51.296;-0.602;2023-02-10T12:15:32;103443.56;;;8.36;100.00
50356;BME280;36264;51.296;-0.602;2023-02-10T12:24:23;103427.50;;;8.51;99.46
50356;BME280;36264;51.296;-0.602;2023-02-10T12:27:07;103432.84;;;8.59;99.82
50356;BME280;36264;51.296;-0.602;2023-02-10T12:29:40;103424.41;;;8.69;100.00
50356;BME280;36264;51.296;-0.602;2023-02-10T12:35:08;103414.47;;;8.92;98.57
50356;BME280;36264;51.296;-0.602;2023-02-10T12:42:56;103409.19;;;8.86;97.31
50356;BME280;36264;51.296;-0.602;2023-02-10T12:45:46;103404.88;;;8.88;100.00
50356;BME280;36264;51.296;-0.602;2023-02-10T12:53:42;103395.28;;;8.81;100.00
50356;BME280;36264;51.296;-0.602;2023-02-10T12:59:30;103381.59;;;8.89;99.79
50356;BME280;36264;51.296;-0.602;2023-02-10T13:02:05;103376.53;;;8.96;100.00
50356;BME280;36264;51.296;-0.602;2023-02-10T13:04:38;103368.75;;;8.96;100.00
50356;BME280;36264;51.296;-0.602;2023-02-10T13:09:43;103360.22;;;9.01;100.00
50356;BME280;36264;51.296;-0.602;2023-02-10T13:12:24;103353.38;;;9.06;98.62
50356;BME280;36264;51.296;-0.602;2023-02-10T13:14:57;103366.44;;;9.11;100.00
50356;BME280;36264;51.296;-0.602;2023-02-10T13:17:33;103363.06;;;9.15;100.00
50356;BME280;36264;51.296;-0.602;2023-02-10T13:20:22;103363.97;;;9.19;100.00
50356;BME280;36264;51.296;-0.602;2023-02-10T13:22:55;103370.84;;;9.17;100.00
50356;BME280;36264;51.296;-0.602;2023-02-10T13:28:12;103363.22;;;9.26;100.00
50356;BME280;36264;51.296;-0.602;2023-02-10T13:33:51;103355.56;;;9.34;98.29
50356;BME280;36264;51.296;-0.602;2023-02-10T13:36:23;103347.97;;;9.46;97.43
50356;BME280;36264;51.296;-0.602;2023-02-10T13:39:05;103343.72;;;9.51;97.76
50356;BME280;36264;51.296;-0.602;2023-02-10T13:41:45;103366.19;;;9.51;96.58
50356;BME280;36264;51.296;-0.602;2023-02-10T13:44:25;103355.75;;;9.46;97.75
50356;BME280;36264;51.296;-0.602;2023-02-10T13:47:12;103354.03;;;9.48;98.53
50356;BME280;36264;51.296;-0.602;2023-02-10T13:49:50;103348.84;;;9.48;98.83
50356;BME280;36264;51.296;-0.602;2023-02-10T13:52:21;103340.13;;;9.43;99.64
50356;BME280;36264;51.296;-0.602;2023-02-10T13:55:03;103335.00;;;9.46;100.00
50356;BME280;36264;51.296;-0.602;2023-02-10T13:57:37;103342.69;;;9.40;99.45
50356;BME280;36264;51.296;-0.602;2023-02-10T14:02:38;103341.78;;;9.38;100.00
50356;BME280;36264;51.296;-0.602;2023-02-10T14:05:21;103334.94;;;9.41;100.00
50356;BME280;36264;51.296;-0.602;2023-02-10T14:07:46;103332.28;;;9.38;100.00
50356;BME280;36264;51.296;-0.602;2023-02-10T14:13:21;103328.19;;;9.53;100.00
50356;BME280;36264;51.296;-0.602;2023-02-10T14:15:59;103325.66;;;9.57;100.00
50356;BME280;36264;51.296;-0.602;2023-02-10T14:18:34;103337.75;;;9.55;100.00
50356;BME280;36264;51.296;-0.602;2023-02-10T14:21:03;103331.66;;;9.53;100.00
50356;BME280;36264;51.296;-0.602;2023-02-10T14:23:32;103326.53;;;9.56;100.00
50356;BME280;36264;51.296;-0.602;2023-02-10T14:26:01;103321.34;;;9.56;100.00
50356;BME280;36264;51.296;-0.602;2023-02-10T14:28:38;103317.06;;;9.61;100.00
50356;BME280;36264;51.296;-0.602;2023-02-10T14:31:11;103321.38;;;9.63;100.00
50356;BME280;36264;51.296;-0.602;2023-02-10T14:33:40;103331.69;;;9.55;100.00